createdAt,value
2017-11-11T00:00:05.504Z,5.84
2017-11-11T00:01:15.502Z,5.87
2017-11-11T00:02:25.836Z,5.74
2017-11-11T00:03:36.172Z,5.79
2017-11-11T00:04:46.477Z,5.77
2017-11-11T00:05:56.795Z,5.77
2017-11-11T00:07:07.088Z,5.8
2017-11-11T00:08:17.094Z,5.77
2017-11-11T00:09:27.059Z,5.69
2017-11-11T00:10:37.369Z,5.84
2017-11-11T00:11:47.674Z,5.73
2017-11-11T00:12:57.666Z,5.74
2017-11-11T00:14:07.321Z,5.81
2017-11-11T00:15:17.619Z,5.7
2017-11-11T00:16:27.927Z,5.74
2017-11-11T00:17:37.903Z,5.79
2017-11-11T00:18:48.196Z,5.73
2017-11-11T00:19:58.494Z,5.77
2017-11-11T00:21:08.803Z,5.72
2017-11-11T00:22:19.127Z,5.69
2017-11-11T00:23:29.435Z,5.74
2017-11-11T00:24:39.415Z,5.81
2017-11-11T00:25:49.394Z,5.65
2017-11-11T00:26:59.374Z,5.69
2017-11-11T00:28:09.352Z,5.73
2017-11-11T00:29:18.990Z,5.62
2017-11-11T00:30:29.291Z,5.67
2017-11-11T00:31:38.939Z,5.61
2017-11-11T00:32:48.910Z,5.72
2017-11-11T00:33:58.889Z,5.67
2017-11-11T00:35:09.222Z,5.72
2017-11-11T00:36:19.560Z,5.7
2017-11-11T00:37:29.532Z,5.67
2017-11-11T00:38:39.504Z,5.62
2017-11-11T00:39:49.832Z,5.72
2017-11-11T00:41:00.159Z,5.67
2017-11-11T00:42:10.465Z,5.61
2017-11-11T00:43:20.448Z,5.76
2017-11-11T00:44:30.761Z,5.64
2017-11-11T00:45:40.405Z,5.7
2017-11-11T00:46:50.408Z,5.65
2017-11-11T00:48:00.375Z,5.58
2017-11-11T00:49:10.621Z,5.7
2017-11-11T00:50:20.608Z,5.69
2017-11-11T00:51:30.899Z,5.7
2017-11-11T00:52:40.539Z,5.67
2017-11-11T00:53:50.857Z,5.72
2017-11-11T00:55:01.171Z,5.7
2017-11-11T00:56:10.813Z,5.67
2017-11-11T00:57:21.157Z,5.72
2017-11-11T00:58:30.481Z,5.62
2017-11-11T00:59:40.706Z,5.69
2017-11-11T01:00:50.713Z,5.69
2017-11-11T01:02:01.021Z,5.73
2017-11-11T01:03:11.017Z,5.67
2017-11-11T01:04:21.000Z,5.7
2017-11-11T01:05:31.299Z,5.69
2017-11-11T01:06:41.606Z,5.74
2017-11-11T01:07:51.613Z,5.65
2017-11-11T01:09:01.585Z,5.7
2017-11-11T01:10:11.568Z,5.7
2017-11-11T01:11:20.932Z,5.72
2017-11-11T01:12:31.242Z,5.73
2017-11-11T01:13:41.545Z,5.69
2017-11-11T01:14:51.545Z,5.64
2017-11-11T01:16:01.849Z,5.7
2017-11-11T01:17:11.503Z,5.7
2017-11-11T01:18:21.505Z,5.72
2017-11-11T01:19:31.854Z,5.7
2017-11-11T01:20:42.155Z,5.67
2017-11-11T01:21:52.446Z,5.65
2017-11-11T01:23:02.419Z,5.67
2017-11-11T01:24:12.736Z,5.62
2017-11-11T01:25:23.034Z,5.67
2017-11-11T01:26:33.000Z,5.72
2017-11-11T01:27:43.306Z,5.62
2017-11-11T01:28:53.618Z,5.69
2017-11-11T01:30:03.928Z,5.58
2017-11-11T01:31:14.214Z,5.7
2017-11-11T01:32:24.183Z,5.72
2017-11-11T01:33:34.485Z,5.62
2017-11-11T01:34:44.477Z,5.62
2017-11-11T01:35:54.124Z,5.72
2017-11-11T01:37:03.777Z,5.69
2017-11-11T01:38:13.427Z,5.7
2017-11-11T01:39:23.076Z,5.65
2017-11-11T01:40:33.061Z,5.62
2017-11-11T01:41:43.366Z,5.65
2017-11-11T01:42:53.664Z,5.69
2017-11-11T01:44:03.681Z,5.67
2017-11-11T01:45:13.331Z,5.65
2017-11-11T01:46:23.639Z,5.69
2017-11-11T01:47:33.604Z,5.69
2017-11-11T01:48:43.264Z,5.74
2017-11-11T01:49:53.232Z,5.67
2017-11-11T01:51:03.534Z,5.65
2017-11-11T01:52:13.826Z,5.56
2017-11-11T01:53:24.113Z,5.65
2017-11-11T01:54:34.446Z,5.62
2017-11-11T01:55:44.425Z,5.7
2017-11-11T01:56:54.404Z,5.7
2017-11-11T01:58:04.382Z,5.67
2017-11-11T01:59:14.023Z,5.69
2017-11-11T02:00:23.998Z,5.67
2017-11-11T02:01:34.296Z,5.7
2017-11-11T02:02:44.268Z,5.73
2017-11-11T02:03:54.611Z,5.58
2017-11-11T02:05:04.921Z,5.65
2017-11-11T02:06:14.894Z,5.64
2017-11-11T02:07:24.876Z,5.64
2017-11-11T02:08:35.176Z,5.69
2017-11-11T02:09:45.481Z,5.67
2017-11-11T02:10:55.779Z,5.74
2017-11-11T02:12:06.090Z,5.61
2017-11-11T02:13:16.415Z,5.59
2017-11-11T02:14:26.709Z,5.61
2017-11-11T02:15:36.676Z,5.59
2017-11-11T02:16:46.646Z,5.51
2017-11-11T02:17:56.633Z,5.61
2017-11-11T02:19:06.609Z,5.55
2017-11-11T02:20:16.912Z,5.56
2017-11-11T02:21:27.218Z,5.56
2017-11-11T02:22:37.187Z,5.59
2017-11-11T02:23:47.158Z,5.59
2017-11-11T02:24:57.131Z,5.59
2017-11-11T02:26:07.096Z,5.55
2017-11-11T02:27:17.062Z,5.54
2017-11-11T02:28:27.369Z,5.55
2017-11-11T02:29:37.365Z,5.61
2017-11-11T02:30:47.673Z,5.58
2017-11-11T02:31:57.317Z,5.59
2017-11-11T02:33:07.667Z,5.58
2017-11-11T02:34:17.633Z,5.54
2017-11-11T02:35:27.276Z,5.54
2017-11-11T02:36:37.268Z,5.49
2017-11-11T02:37:47.570Z,5.44
2017-11-11T02:38:57.532Z,5.43
2017-11-11T02:40:07.839Z,5.46
2017-11-11T02:41:17.486Z,5.47
2017-11-11T02:42:27.837Z,5.36
2017-11-11T02:43:37.494Z,5.41
2017-11-11T02:44:47.483Z,5.49
2017-11-11T02:45:57.798Z,5.38
2017-11-11T02:47:08.131Z,5.46
2017-11-11T02:48:18.439Z,5.49
2017-11-11T02:49:28.745Z,5.4
2017-11-11T02:50:39.066Z,5.4
2017-11-11T02:51:49.429Z,5.46
2017-11-11T02:52:59.721Z,5.46
2017-11-11T02:54:09.363Z,5.4
2017-11-11T02:55:19.012Z,5.44
2017-11-11T02:56:29.325Z,5.44
2017-11-11T02:57:39.331Z,5.46
2017-11-11T02:58:48.973Z,5.46
2017-11-11T02:59:58.623Z,5.56
2017-11-11T03:01:08.607Z,5.62
2017-11-11T03:02:18.573Z,5.55
2017-11-11T03:03:28.219Z,5.59
2017-11-11T03:04:38.773Z,5.58
2017-11-11T03:05:48.759Z,5.56
2017-11-11T03:06:57.740Z,5.54
2017-11-11T03:08:07.746Z,5.62
2017-11-11T03:09:17.390Z,5.59
2017-11-11T03:10:27.689Z,5.62
2017-11-11T03:11:37.983Z,5.56
2017-11-11T03:12:48.271Z,5.59
2017-11-11T03:13:58.244Z,5.54
2017-11-11T03:15:08.242Z,5.62
2017-11-11T03:16:18.502Z,5.64
2017-11-11T03:17:28.472Z,5.62
2017-11-11T03:18:38.785Z,5.62
2017-11-11T03:19:48.752Z,5.62
2017-11-11T03:20:59.045Z,5.61
2017-11-11T03:22:08.362Z,5.55
2017-11-11T03:23:18.673Z,5.59
2017-11-11T03:24:28.966Z,5.61
2017-11-11T03:25:38.937Z,5.58
2017-11-11T03:26:48.912Z,5.62
2017-11-11T03:27:59.213Z,5.67
2017-11-11T03:29:09.518Z,5.64
2017-11-11T03:30:19.509Z,5.7
2017-11-11T03:31:29.489Z,5.69
2017-11-11T03:32:39.464Z,5.65
2017-11-11T03:33:49.428Z,5.61
2017-11-11T03:34:59.392Z,5.7
2017-11-11T03:36:09.713Z,5.7
2017-11-11T03:37:19.346Z,5.7
2017-11-11T03:38:29.647Z,5.73
2017-11-11T03:39:39.617Z,5.65
2017-11-11T03:40:49.616Z,5.62
2017-11-11T03:41:59.912Z,5.64
2017-11-11T03:43:10.224Z,5.67
2017-11-11T03:44:20.222Z,5.65
2017-11-11T03:45:30.444Z,5.67
2017-11-11T03:46:40.743Z,5.64
2017-11-11T03:47:50.729Z,5.69
2017-11-11T03:49:00.706Z,5.64
2017-11-11T03:50:10.663Z,5.64
2017-11-11T03:51:20.877Z,5.64
2017-11-11T03:52:31.184Z,5.59
2017-11-11T03:53:40.836Z,5.67
2017-11-11T03:54:51.156Z,5.67
2017-11-11T03:56:01.468Z,5.76
2017-11-11T03:57:11.437Z,5.77
2017-11-11T03:58:21.415Z,5.64
2017-11-11T03:59:30.723Z,5.64
2017-11-11T04:00:40.696Z,5.79
2017-11-11T04:01:50.340Z,5.67
2017-11-11T04:03:00.315Z,5.69
2017-11-11T04:04:09.960Z,5.69
2017-11-11T04:05:20.275Z,5.73
2017-11-11T04:06:30.241Z,5.77
2017-11-11T04:07:40.215Z,5.65
2017-11-11T04:08:49.853Z,5.67
2017-11-11T04:09:59.506Z,5.62
2017-11-11T04:11:09.157Z,5.65
2017-11-11T04:12:18.794Z,5.69
2017-11-11T04:13:28.766Z,5.7
2017-11-11T04:14:38.729Z,5.72
2017-11-11T04:15:48.706Z,5.73
2017-11-11T04:16:58.356Z,5.7
2017-11-11T04:18:08.578Z,5.77
2017-11-11T04:19:18.880Z,5.69
2017-11-11T04:20:29.172Z,5.7
2017-11-11T04:21:39.464Z,5.72
2017-11-11T04:22:49.125Z,5.69
2017-11-11T04:23:59.106Z,5.62
2017-11-11T04:25:09.408Z,5.65
2017-11-11T04:26:19.375Z,5.72
2017-11-11T04:27:29.377Z,5.76
2017-11-11T04:28:39.692Z,5.69
2017-11-11T04:29:50.001Z,5.72
2017-11-11T04:30:59.971Z,5.72
2017-11-11T04:32:10.274Z,5.72
2017-11-11T04:33:20.244Z,5.65
2017-11-11T04:34:30.541Z,5.73
2017-11-11T04:35:40.504Z,5.61
2017-11-11T04:36:50.810Z,5.72
2017-11-11T04:38:00.462Z,5.72
2017-11-11T04:39:10.713Z,5.69
2017-11-11T04:40:20.695Z,5.7
2017-11-11T04:41:30.669Z,5.59
2017-11-11T04:42:40.641Z,5.64
2017-11-11T04:43:50.601Z,5.7
2017-11-11T04:45:00.918Z,5.77
2017-11-11T04:46:10.557Z,5.62
2017-11-11T04:47:20.529Z,5.69
2017-11-11T04:48:30.826Z,5.65
2017-11-11T04:49:40.715Z,5.74
2017-11-11T04:50:50.680Z,5.67
2017-11-11T04:52:01.002Z,5.73
2017-11-11T04:53:11.301Z,5.67
2017-11-11T04:54:21.591Z,5.67
2017-11-11T04:55:31.255Z,5.7
2017-11-11T04:56:41.569Z,5.64
2017-11-11T04:57:51.864Z,5.72
2017-11-11T04:59:01.533Z,5.72
2017-11-11T05:00:11.529Z,5.62
2017-11-11T05:01:21.832Z,5.7
2017-11-11T05:02:31.799Z,5.74
2017-11-11T05:03:41.436Z,5.72
2017-11-11T05:04:51.737Z,5.79
2017-11-11T05:06:02.030Z,5.81
2017-11-11T05:07:12.007Z,5.73
2017-11-11T05:08:22.006Z,5.77
2017-11-11T05:09:31.986Z,5.67
2017-11-11T05:10:42.525Z,5.7
2017-11-11T05:11:52.866Z,5.7
2017-11-11T05:13:02.836Z,5.73
2017-11-11T05:14:12.802Z,5.72
2017-11-11T05:15:22.774Z,5.81
2017-11-11T05:16:32.750Z,5.77
2017-11-11T05:17:43.049Z,5.73
2017-11-11T05:18:53.019Z,5.8
2017-11-11T05:20:03.326Z,5.84
2017-11-11T05:21:13.318Z,5.8
2017-11-11T05:22:23.640Z,5.8
2017-11-11T05:23:33.946Z,5.8
2017-11-11T05:24:43.932Z,5.81
2017-11-11T05:25:54.241Z,5.81
2017-11-11T05:27:04.203Z,5.9
2017-11-11T05:28:14.177Z,5.74
2017-11-11T05:29:24.165Z,5.8
2017-11-11T05:30:34.151Z,5.83
2017-11-11T05:31:44.124Z,5.83
2017-11-11T05:32:54.097Z,5.81
2017-11-11T05:34:03.745Z,5.87
2017-11-11T05:35:14.058Z,5.9
2017-11-11T05:36:24.359Z,5.83
2017-11-11T05:37:34.003Z,5.84
2017-11-11T05:38:44.312Z,5.81
2017-11-11T05:39:54.284Z,5.88
2017-11-11T05:41:04.249Z,5.83
2017-11-11T05:42:14.569Z,5.87
2017-11-11T05:43:24.209Z,5.81
2017-11-11T05:44:34.183Z,5.84
2017-11-11T05:45:44.161Z,5.84
2017-11-11T05:46:53.801Z,5.79
2017-11-11T05:48:04.102Z,5.7
2017-11-11T05:49:14.413Z,5.76
2017-11-11T05:50:24.720Z,5.7
2017-11-11T05:51:35.020Z,5.76
2017-11-11T05:52:45.338Z,5.73
2017-11-11T05:53:55.638Z,5.76
2017-11-11T05:55:05.961Z,5.7
2017-11-11T05:56:16.259Z,5.79
2017-11-11T05:57:26.232Z,5.73
2017-11-11T05:58:36.213Z,5.73
2017-11-11T05:59:46.185Z,5.65
2017-11-11T06:00:56.502Z,5.76
2017-11-11T06:02:06.804Z,5.79
2017-11-11T06:03:16.448Z,5.73
2017-11-11T06:04:26.750Z,5.7
2017-11-11T06:05:36.742Z,5.73
2017-11-11T06:06:47.035Z,5.77
2017-11-11T06:07:57.007Z,5.8
2017-11-11T06:09:07.567Z,5.73
2017-11-11T06:10:17.536Z,5.72
2017-11-11T06:11:27.832Z,5.62
2017-11-11T06:12:38.126Z,5.72
2017-11-11T06:13:47.761Z,5.77
2017-11-11T06:14:57.409Z,5.76
2017-11-11T06:16:07.443Z,5.67
2017-11-11T06:17:17.760Z,5.72
2017-11-11T06:18:28.074Z,5.56
2017-11-11T06:19:37.724Z,5.69
2017-11-11T06:20:47.694Z,5.59
2017-11-11T06:21:58.010Z,5.55
2017-11-11T06:23:07.980Z,5.51
2017-11-11T06:24:18.285Z,5.46
2017-11-11T06:25:28.598Z,5.4
2017-11-11T06:26:38.582Z,5.38
2017-11-11T06:27:48.881Z,5.37
2017-11-11T06:28:58.544Z,5.37
2017-11-11T06:30:08.541Z,5.4
2017-11-11T06:31:18.526Z,5.38
2017-11-11T06:32:28.528Z,5.37
2017-11-11T06:33:38.830Z,5.33
2017-11-11T06:34:48.810Z,5.38
2017-11-11T06:35:58.777Z,5.38
2017-11-11T06:37:08.427Z,5.31
2017-11-11T06:38:18.396Z,5.36
2017-11-11T06:39:28.705Z,5.25
2017-11-11T06:40:39.019Z,5.25
2017-11-11T06:41:49.313Z,5.19
2017-11-11T06:42:58.950Z,5.15
2017-11-11T06:44:08.932Z,5.12
2017-11-11T06:45:19.229Z,5.22
2017-11-11T06:46:29.775Z,5.15
2017-11-11T06:47:39.756Z,5.12
2017-11-11T06:48:50.067Z,5.02
2017-11-11T06:50:00.372Z,5.12
2017-11-11T06:51:10.684Z,5.05
2017-11-11T06:52:21.000Z,5.02
2017-11-11T06:53:31.308Z,5.05
2017-11-11T06:54:40.987Z,5
2017-11-11T06:55:51.311Z,5.04
2017-11-11T06:57:01.620Z,5.01
2017-11-11T06:58:11.913Z,5.02
2017-11-11T06:59:22.242Z,5
2017-11-11T07:00:32.234Z,4.9
2017-11-11T07:01:41.549Z,4.97
2017-11-11T07:02:51.904Z,4.97
2017-11-11T07:04:02.198Z,4.89
2017-11-11T07:05:12.514Z,4.95
2017-11-11T07:06:22.820Z,4.98
2017-11-11T07:07:32.796Z,5.02
2017-11-11T07:08:42.791Z,4.9
2017-11-11T07:09:53.104Z,5.02
2017-11-11T07:11:03.085Z,5.05
2017-11-11T07:12:13.385Z,5
2017-11-11T07:13:23.373Z,5.05
2017-11-11T07:14:33.683Z,5.02
2017-11-11T07:15:43.990Z,5.04
2017-11-11T07:16:53.970Z,5.02
2017-11-11T07:18:04.278Z,4.98
2017-11-11T07:19:14.246Z,4.94
2017-11-11T07:20:24.573Z,5
2017-11-11T07:21:34.548Z,5
2017-11-11T07:22:44.533Z,4.97
2017-11-11T07:23:54.823Z,5.04
2017-11-11T07:25:05.131Z,5.02
2017-11-11T07:26:15.100Z,5.05
2017-11-11T07:27:25.415Z,5
2017-11-11T07:28:35.965Z,5.1
2017-11-11T07:29:45.622Z,5.02
2017-11-11T07:30:55.274Z,5.02
2017-11-11T07:32:05.243Z,5.02
2017-11-11T07:33:15.220Z,5.12
2017-11-11T07:34:25.523Z,5.1
2017-11-11T07:35:35.833Z,5.1
2017-11-11T07:36:46.131Z,5.16
2017-11-11T07:37:56.122Z,5.13
2017-11-11T07:39:06.106Z,5.18
2017-11-11T07:40:16.079Z,5.2
2017-11-11T07:41:25.717Z,5.25
2017-11-11T07:42:36.021Z,5.23
2017-11-11T07:43:46.002Z,5.18
2017-11-11T07:44:55.976Z,5.28
2017-11-11T07:46:05.619Z,5.34
2017-11-11T07:47:15.584Z,5.41
2017-11-11T07:48:25.565Z,5.34
2017-11-11T07:49:35.868Z,5.38
2017-11-11T07:50:45.848Z,5.47
2017-11-11T07:51:56.160Z,5.43
2017-11-11T07:53:06.490Z,5.46
2017-11-11T07:54:16.832Z,5.43
2017-11-11T07:55:27.144Z,5.49
2017-11-11T07:56:37.441Z,5.43
2017-11-11T07:57:47.749Z,5.4
2017-11-11T07:58:58.068Z,5.55
2017-11-11T08:00:08.046Z,5.51
2017-11-11T08:01:18.055Z,5.52
2017-11-11T08:02:28.353Z,5.56
2017-11-11T08:03:38.665Z,5.51
2017-11-11T08:04:48.961Z,5.51
2017-11-11T08:05:59.296Z,5.49
2017-11-11T08:07:09.264Z,5.47
2017-11-11T08:08:19.563Z,5.51
2017-11-11T08:09:29.540Z,5.54
2017-11-11T08:10:39.841Z,5.43
2017-11-11T08:11:49.831Z,5.46
2017-11-11T08:12:59.472Z,5.56
2017-11-11T08:14:09.460Z,5.46
2017-11-11T08:15:19.765Z,5.56
2017-11-11T08:16:30.067Z,5.56
2017-11-11T08:17:39.723Z,5.55
2017-11-11T08:18:49.711Z,5.61
2017-11-11T08:20:00.019Z,5.67
2017-11-11T08:21:10.013Z,5.62
2017-11-11T08:22:19.981Z,5.55
2017-11-11T08:23:30.282Z,5.7
2017-11-11T08:24:40.267Z,5.7
2017-11-11T08:25:50.568Z,5.77
2017-11-11T08:27:00.871Z,5.64
2017-11-11T08:28:10.515Z,5.73
2017-11-11T08:29:19.546Z,5.65
2017-11-11T08:30:29.844Z,5.73
2017-11-11T08:31:39.499Z,5.69
2017-11-11T08:32:49.817Z,5.65
2017-11-11T08:34:00.144Z,5.76
2017-11-11T08:35:10.121Z,5.67
2017-11-11T08:36:20.446Z,5.73
2017-11-11T08:37:30.698Z,5.81
2017-11-11T08:38:40.994Z,5.7
2017-11-11T08:39:50.970Z,5.81
2017-11-11T08:41:00.964Z,5.87
2017-11-11T08:42:10.285Z,5.81
2017-11-11T08:43:20.581Z,5.84
2017-11-11T08:44:30.888Z,5.84
2017-11-11T08:45:41.226Z,5.99
2017-11-11T08:46:51.541Z,5.95
2017-11-11T08:48:00.875Z,5.88
2017-11-11T08:49:10.880Z,5.95
2017-11-11T08:50:21.212Z,5.98
2017-11-11T08:51:31.191Z,5.94
2017-11-11T08:52:41.501Z,5.99
2017-11-11T08:53:51.823Z,5.92
2017-11-11T08:55:02.126Z,5.95
2017-11-11T08:56:12.100Z,5.94
2017-11-11T08:57:22.085Z,5.95
2017-11-11T08:58:32.389Z,5.88
2017-11-11T08:59:42.046Z,5.94
2017-11-11T09:00:52.367Z,5.97
2017-11-11T09:02:02.353Z,5.92
2017-11-11T09:03:12.676Z,5.98
2017-11-11T09:04:22.319Z,6.01
2017-11-11T09:05:32.306Z,5.95
2017-11-11T09:06:42.287Z,6.07
2017-11-11T09:07:52.605Z,6.17
2017-11-11T09:09:02.593Z,6.13
2017-11-11T09:10:12.248Z,6.2
2017-11-11T09:11:21.891Z,6.31
2017-11-11T09:12:32.201Z,6.29
2017-11-11T09:13:42.499Z,6.35
2017-11-11T09:14:52.144Z,6.39
2017-11-11T09:16:02.141Z,6.39
2017-11-11T09:17:11.789Z,6.41
2017-11-11T09:18:21.767Z,6.39
2017-11-11T09:19:32.089Z,6.41
2017-11-11T09:20:41.751Z,6.49
2017-11-11T09:21:51.752Z,6.47
2017-11-11T09:23:01.643Z,6.53
2017-11-11T09:24:11.951Z,6.57
2017-11-11T09:25:22.285Z,6.52
2017-11-11T09:26:32.608Z,6.53
2017-11-11T09:27:42.251Z,6.54
2017-11-11T09:28:52.585Z,6.56
2017-11-11T09:30:02.244Z,6.62
2017-11-11T09:31:12.552Z,6.6
2017-11-11T09:32:22.550Z,6.53
2017-11-11T09:33:32.577Z,6.53
2017-11-11T09:34:42.556Z,6.65
2017-11-11T09:35:52.871Z,6.6
2017-11-11T09:37:02.532Z,6.62
2017-11-11T09:38:12.178Z,6.56
2017-11-11T09:39:22.513Z,6.64
2017-11-11T09:40:32.148Z,6.64
2017-11-11T09:41:41.465Z,6.64
2017-11-11T09:42:51.465Z,6.67
2017-11-11T09:44:01.442Z,6.59
2017-11-11T09:45:11.754Z,6.64
2017-11-11T09:46:22.076Z,6.65
2017-11-11T09:47:31.377Z,6.74
2017-11-11T09:48:41.677Z,6.72
2017-11-11T09:49:51.982Z,6.71
2017-11-11T09:51:02.291Z,6.77
2017-11-11T09:52:12.592Z,6.8
2017-11-11T09:53:22.909Z,6.75
2017-11-11T09:54:33.223Z,6.77
2017-11-11T09:55:43.533Z,6.74
2017-11-11T09:56:53.836Z,6.74
2017-11-11T09:58:03.825Z,6.67
2017-11-11T09:59:13.811Z,6.68
2017-11-11T10:00:23.798Z,6.68
2017-11-11T10:01:34.099Z,6.72
2017-11-11T10:02:44.425Z,6.67
2017-11-11T10:03:54.393Z,6.7
2017-11-11T10:05:04.368Z,6.71
2017-11-11T10:06:14.342Z,6.62
2017-11-11T10:07:24.656Z,6.65
2017-11-11T10:08:34.657Z,6.71
2017-11-11T10:09:44.332Z,6.62
2017-11-11T10:10:54.647Z,6.65
2017-11-11T10:12:04.626Z,6.64
2017-11-11T10:13:14.614Z,6.64
2017-11-11T10:14:24.642Z,6.74
2017-11-11T10:15:34.626Z,6.7
2017-11-11T10:16:44.857Z,6.72
2017-11-11T10:17:54.534Z,6.8
2017-11-11T10:19:04.845Z,6.89
2017-11-11T10:20:15.159Z,6.77
2017-11-11T10:21:25.464Z,6.9
2017-11-11T10:22:35.459Z,6.86
2017-11-11T10:23:45.432Z,6.85
2017-11-11T10:24:55.769Z,6.92
2017-11-11T10:26:05.781Z,6.93
2017-11-11T10:27:16.093Z,6.95
2017-11-11T10:28:26.083Z,7
2017-11-11T10:29:36.061Z,7.04
2017-11-11T10:30:46.396Z,7.15
2017-11-11T10:31:56.387Z,7.13
2017-11-11T10:33:06.711Z,7.14
2017-11-11T10:34:16.677Z,7.19
2017-11-11T10:35:26.663Z,7.23
2017-11-11T10:36:36.633Z,7.21
2017-11-11T10:37:46.617Z,7.21
2017-11-11T10:38:55.944Z,7.23
2017-11-11T10:40:05.618Z,7.19
2017-11-11T10:41:15.585Z,7.21
2017-11-11T10:42:25.892Z,7.18
2017-11-11T10:43:36.196Z,7.15
2017-11-11T10:44:46.498Z,7.13
2017-11-11T10:45:56.811Z,7.05
2017-11-11T10:47:06.781Z,7.01
2017-11-11T10:48:17.086Z,7.04
2017-11-11T10:49:27.422Z,7.04
2017-11-11T10:50:37.394Z,7.04
2017-11-11T10:51:47.716Z,6.95
2017-11-11T10:52:57.720Z,6.9
2017-11-11T10:54:07.692Z,6.92
2017-11-11T10:55:18.023Z,6.89
2017-11-11T10:56:27.999Z,6.8
2017-11-11T10:57:37.313Z,6.9
2017-11-11T10:58:47.608Z,6.85
2017-11-11T10:59:57.938Z,6.72
2017-11-11T11:01:08.286Z,6.72
2017-11-11T11:02:18.289Z,6.59
2017-11-11T11:03:28.268Z,6.65
2017-11-11T11:04:38.260Z,6.59
2017-11-11T11:05:48.592Z,6.6
2017-11-11T11:06:58.571Z,6.62
2017-11-11T11:08:08.555Z,6.57
2017-11-11T11:09:18.869Z,6.7
2017-11-11T11:10:28.785Z,6.71
2017-11-11T11:11:38.791Z,6.86
2017-11-11T11:12:49.104Z,6.87
2017-11-11T11:13:58.783Z,6.95
2017-11-11T11:15:08.777Z,7
2017-11-11T11:16:18.770Z,7.23
2017-11-11T11:17:28.439Z,7.31
2017-11-11T11:18:38.763Z,7.28
2017-11-11T11:19:48.747Z,7.25
2017-11-11T11:20:58.740Z,7.29
2017-11-11T11:22:08.732Z,7.28
2017-11-11T11:23:19.036Z,7.31
2017-11-11T11:24:29.050Z,7.28
2017-11-11T11:25:38.956Z,7.15
2017-11-11T11:26:48.932Z,7.18
2017-11-11T11:27:58.910Z,7.21
2017-11-11T11:29:09.221Z,7.21
2017-11-11T11:30:19.205Z,7.21
2017-11-11T11:31:28.859Z,7.05
2017-11-11T11:32:38.830Z,7.1
2017-11-11T11:33:48.148Z,7.08
2017-11-11T11:34:58.452Z,6.9
2017-11-11T11:36:08.456Z,6.87
2017-11-11T11:37:18.434Z,6.86
2017-11-11T11:38:28.750Z,6.87
2017-11-11T11:39:39.067Z,6.82
2017-11-11T11:40:49.369Z,6.9
2017-11-11T11:41:59.353Z,6.87
2017-11-11T11:43:09.333Z,6.97
2017-11-11T11:44:18.988Z,7.03
2017-11-11T11:45:28.995Z,7.05
2017-11-11T11:46:39.315Z,7.03
2017-11-11T11:47:48.967Z,7.05
2017-11-11T11:48:58.966Z,7.05
2017-11-11T11:50:09.298Z,7.01
2017-11-11T11:51:19.285Z,7.04
2017-11-11T11:52:29.590Z,7.01
2017-11-11T11:53:39.584Z,7.01
2017-11-11T11:54:49.909Z,7.1
2017-11-11T11:56:00.212Z,7.14
2017-11-11T11:57:09.877Z,7.14
2017-11-11T11:58:19.521Z,7.18
2017-11-11T11:59:29.841Z,7.13
2017-11-11T12:00:39.858Z,7.18
2017-11-11T12:01:49.841Z,7.13
2017-11-11T12:03:00.404Z,7.18
2017-11-11T12:04:10.736Z,7.15
2017-11-11T12:05:20.733Z,7.13
2017-11-11T12:06:30.705Z,7.14
2017-11-11T12:07:41.028Z,7.18
2017-11-11T12:08:50.998Z,7.14
2017-11-11T12:10:00.966Z,7.21
2017-11-11T12:11:11.305Z,7.21
2017-11-11T12:12:21.605Z,7.21
2017-11-11T12:13:31.933Z,7.21
2017-11-11T12:14:41.914Z,7.1
2017-11-11T12:15:52.148Z,7.1
2017-11-11T12:17:02.123Z,7.18
2017-11-11T12:18:12.435Z,7.15
2017-11-11T12:19:22.084Z,7.1
2017-11-11T12:20:32.070Z,7.07
2017-11-11T12:21:42.061Z,7.14
2017-11-11T12:22:52.043Z,7.13
2017-11-11T12:24:02.022Z,7.19
2017-11-11T12:25:12.324Z,7.18
2017-11-11T12:26:22.336Z,7.19
2017-11-11T12:27:32.637Z,7.22
2017-11-11T12:28:42.985Z,7.23
2017-11-11T12:29:52.978Z,7.11
2017-11-11T12:31:02.665Z,7.22
2017-11-11T12:32:12.663Z,7.15
2017-11-11T12:33:22.306Z,7.22
2017-11-11T12:34:32.285Z,7.15
2017-11-11T12:35:42.897Z,7.29
2017-11-11T12:36:53.203Z,7.28
2017-11-11T12:38:03.519Z,7.31
2017-11-11T12:39:13.838Z,7.31
2017-11-11T12:40:23.824Z,7.37
2017-11-11T12:41:33.808Z,7.41
2017-11-11T12:42:43.804Z,7.39
2017-11-11T12:43:54.126Z,7.4
2017-11-11T12:45:04.109Z,7.44
2017-11-11T12:46:14.111Z,7.48
2017-11-11T12:47:23.799Z,7.47
2017-11-11T12:48:33.771Z,7.51
2017-11-11T12:49:43.436Z,7.53
2017-11-11T12:50:53.995Z,7.53
2017-11-11T12:52:03.993Z,7.5
2017-11-11T12:53:13.653Z,7.48
2017-11-11T12:54:23.967Z,7.53
2017-11-11T12:55:33.605Z,7.43
2017-11-11T12:56:43.945Z,7.37
2017-11-11T12:57:54.243Z,7.37
2017-11-11T12:59:04.564Z,7.33
2017-11-11T13:00:14.921Z,7.39
2017-11-11T13:01:25.336Z,7.29
2017-11-11T13:02:35.011Z,7.28
2017-11-11T13:03:45.016Z,7.36
2017-11-11T13:04:55.331Z,7.39
2017-11-11T13:06:05.322Z,7.21
2017-11-11T13:07:14.982Z,7.31
2017-11-11T13:08:25.297Z,7.28
2017-11-11T13:09:35.618Z,7.15
2017-11-11T13:10:45.949Z,7.29
2017-11-11T13:11:55.925Z,7.28
2017-11-11T13:13:06.221Z,7.37
2017-11-11T13:14:16.542Z,7.32
2017-11-11T13:15:26.849Z,7.36
2017-11-11T13:16:36.840Z,7.36
2017-11-11T13:17:47.153Z,7.39
2017-11-11T13:18:56.812Z,7.39
2017-11-11T13:20:06.792Z,7.33
2017-11-11T13:21:16.789Z,7.36
2017-11-11T13:22:27.109Z,7.41
2017-11-11T13:23:37.080Z,7.36
2017-11-11T13:24:47.407Z,7.31
2017-11-11T13:25:57.396Z,7.26
2017-11-11T13:27:07.372Z,7.29
2017-11-11T13:28:17.678Z,7.29
2017-11-11T13:29:27.344Z,7.29
2017-11-11T13:30:37.329Z,7.32
2017-11-11T13:31:47.640Z,7.29
2017-11-11T13:32:57.282Z,7.31
2017-11-11T13:34:07.584Z,7.22
2017-11-11T13:35:17.912Z,7.29
2017-11-11T13:36:27.898Z,7.31
2017-11-11T13:37:37.569Z,7.37
2017-11-11T13:38:47.898Z,7.26
2017-11-11T13:39:57.877Z,7.31
2017-11-11T13:41:08.177Z,7.32
2017-11-11T13:42:17.823Z,7.36
2017-11-11T13:43:28.130Z,7.29
2017-11-11T13:44:38.457Z,7.28
2017-11-11T13:45:48.449Z,7.26
2017-11-11T13:46:58.425Z,7.29
2017-11-11T13:48:08.740Z,7.31
2017-11-11T13:49:19.044Z,7.23
2017-11-11T13:50:29.351Z,7.13
2017-11-11T13:51:39.667Z,6.93
2017-11-11T13:52:49.648Z,6.8
2017-11-11T13:53:59.624Z,6.7
2017-11-11T13:55:09.602Z,6.57
2017-11-11T13:56:19.923Z,6.6
2017-11-11T13:57:29.586Z,6.5
2017-11-11T13:58:39.578Z,6.49
2017-11-11T13:59:49.221Z,6.39
2017-11-11T14:00:59.533Z,6.52
2017-11-11T14:02:09.847Z,6.39
2017-11-11T14:03:19.816Z,6.41
2017-11-11T14:04:29.476Z,6.39
2017-11-11T14:05:39.128Z,6.35
2017-11-11T14:06:49.434Z,6.25
2017-11-11T14:07:59.735Z,6.32
2017-11-11T14:09:09.730Z,6.26
2017-11-11T14:10:20.037Z,6.26
2017-11-11T14:11:30.029Z,6.31
2017-11-11T14:12:39.994Z,6.31
2017-11-11T14:13:50.300Z,6.35
2017-11-11T14:15:00.605Z,6.29
2017-11-11T14:16:10.916Z,6.29
2017-11-11T14:17:20.891Z,6.28
2017-11-11T14:18:31.194Z,6.32
2017-11-11T14:19:41.508Z,6.35
2017-11-11T14:20:51.149Z,6.28
2017-11-11T14:22:01.157Z,6.32
2017-11-11T14:23:11.472Z,6.36
2017-11-11T14:24:21.797Z,6.29
2017-11-11T14:25:32.092Z,6.32
2017-11-11T14:26:41.748Z,6.31
2017-11-11T14:27:52.056Z,6.34
2017-11-11T14:29:02.276Z,6.34
2017-11-11T14:30:11.923Z,6.35
2017-11-11T14:31:22.242Z,6.32
2017-11-11T14:32:32.221Z,6.34
2017-11-11T14:33:42.202Z,6.35
2017-11-11T14:34:52.506Z,6.28
2017-11-11T14:36:02.809Z,6.35
2017-11-11T14:37:12.786Z,6.35
2017-11-11T14:38:22.773Z,6.31
2017-11-11T14:39:33.091Z,6.29
2017-11-11T14:40:43.068Z,6.29
2017-11-11T14:41:53.049Z,6.38
2017-11-11T14:43:03.373Z,6.39
2017-11-11T14:44:13.363Z,6.39
2017-11-11T14:45:23.339Z,6.26
2017-11-11T14:46:33.308Z,6.31
2017-11-11T14:47:42.948Z,6.29
2017-11-11T14:48:53.273Z,6.29
2017-11-11T14:50:03.612Z,6.2
2017-11-11T14:51:13.611Z,6.16
2017-11-11T14:52:23.919Z,6.25
2017-11-11T14:53:33.897Z,6.16
2017-11-11T14:54:44.193Z,6.16
2017-11-11T14:55:54.512Z,6.2
2017-11-11T14:57:04.493Z,6.19
2017-11-11T14:58:14.485Z,6.13
2017-11-11T14:59:24.799Z,6.16
2017-11-11T15:00:34.458Z,6.13
2017-11-11T15:01:44.441Z,6.16
2017-11-11T15:02:54.745Z,6.12
2017-11-11T15:04:04.724Z,6.22
2017-11-11T15:05:15.035Z,6.01
2017-11-11T15:06:25.039Z,6.06
2017-11-11T15:07:35.010Z,6.12
2017-11-11T15:08:44.988Z,6.09
2017-11-11T15:09:55.322Z,5.99
2017-11-11T15:11:05.627Z,6.01
2017-11-11T15:12:15.289Z,5.99
2017-11-11T15:13:25.598Z,5.95
2017-11-11T15:14:35.244Z,5.99
2017-11-11T15:15:45.218Z,5.95
2017-11-11T15:16:55.518Z,5.94
2017-11-11T15:18:05.822Z,6.01
2017-11-11T15:19:15.477Z,5.97
2017-11-11T15:20:25.483Z,5.98
2017-11-11T15:21:35.810Z,6.02
2017-11-11T15:22:45.140Z,5.95
2017-11-11T15:23:55.472Z,5.97
2017-11-11T15:25:04.801Z,5.94
2017-11-11T15:26:14.456Z,6.05
2017-11-11T15:27:24.124Z,5.97
2017-11-11T15:28:34.429Z,5.99
2017-11-11T15:29:44.401Z,6.05
2017-11-11T15:30:54.715Z,5.99
2017-11-11T15:32:04.698Z,6.06
2017-11-11T15:33:15.011Z,6.02
2017-11-11T15:34:25.323Z,6.01
2017-11-11T15:35:35.637Z,5.99
2017-11-11T15:36:45.875Z,5.97